Terminal Aerodrome Forecast
Issued by NWS Tampa Bay Area, FL

Home | Current Version | Previous Version | Text Only | Print | Product List | Glossary On
Versions: 1 2 3 4 5 6 7 8 9 10 11 12 13 14 15 16 17 18 19 20 21 22 23 24 25 26 27
990
FTUS42 KTBW 220255 AAA
TAFTPA
TAF AMD
KTPA 220255Z 2203/2224 13005KT P6SM SCT045 BKN120 BKN200
     FM221000 14008KT P6SM SHRA BKN030 OVC100
     FM221300 13007KT 5SM TSRA BKN020CB OVC050
     FM222100 10006KT 5SM SHRA VCTS BKN020CB OVC050=

USA.gov is the U.S. government's official web portal to all federal, state and local government web resources and services.